Time;durP1;ratioP1;P1;durP2;ratioP2;P2;SDS_P1;SDS_P2;PMS_P1;PMS_P2;Temp;Humidity;BMP_temperature;BMP_pressure;BME280_temperature;BME280_humidity;BME280_pressure;Samples;Min_cycle;Max_cycle;Signal;HPM_P1;HPM_P2
2023/10/08 00:02:22;;;;;;;8.93;8.03;;;;;;;8.25;100.00;96358.97;7432251;19;20393;-96
2023/10/08 00:04:52;;;;;;;9.77;7.50;;;;;;;8.10;100.00;96364.69;7434175;19;20420;-96
2023/10/08 00:07:22;;;;;;;10.63;7.13;;;;;;;7.45;100.00;96270.78;7430812;19;20416;-95
2023/10/08 00:09:55;;;;;;;8.47;6.53;;;;;;;7.67;100.00;96309.38;7428045;19;20395;-95
2023/10/08 00:12:23;;;;;;;8.80;7.73;;;;;;;8.55;100.00;96396.81;7429555;19;20380;-95
2023/10/08 00:14:54;;;;;;;8.83;6.30;;;;;;;7.96;100.00;96277.19;7430782;19;20443;-95
2023/10/08 00:17:22;;;;;;;9.57;7.30;;;;;;;8.48;100.00;96358.84;7428096;19;20412;-96
2023/10/08 00:19:52;;;;;;;8.67;5.90;;;;;;;8.65;100.00;96368.59;7427318;19;20413;-95
2023/10/08 00:22:20;;;;;;;6.90;5.77;;;;;;;9.50;100.00;96492.72;7431903;19;20396;-95
2023/10/08 00:25:11;;;;;;;5.80;5.00;;;;;;;9.11;100.00;96397.66;7430776;19;20406;-95
2023/10/08 00:28:21;;;;;;;10.10;6.00;;;;;;;8.30;100.00;96279.81;7427810;19;20441;-96
2023/10/08 00:30:50;;;;;;;8.00;7.00;;;;;;;9.65;100.00;96487.69;7431701;19;20385;-96
2023/10/08 00:33:21;;;;;;;6.23;5.03;;;;;;;9.26;100.00;96396.38;7428455;19;20385;-96
2023/10/08 00:36:17;;;;;;;7.80;5.80;;;;;;;9.30;100.00;96399.94;7427687;19;20388;-96
2023/10/08 00:39:02;;;;;;;6.03;4.90;;;;;;;8.84;100.00;96274.13;7427072;19;20377;-95
2023/10/08 00:42:04;;;;;;;7.63;5.13;;;;;;;9.86;100.00;96403.25;7431388;19;20412;-96
2023/10/08 00:59:25;;;;;;;8.17;5.37;;;;;;;11.11;100.00;96346.91;7426539;19;20411;-96
2023/10/08 01:02:26;;;;;;;5.27;3.83;;;;;;;10.62;100.00;96243.66;7426919;19;20393;-96
2023/10/08 01:05:00;;;;;;;4.83;3.60;;;;;;;11.56;100.00;96373.31;7431181;19;20384;-96
2023/10/08 01:07:30;;;;;;;4.57;3.67;;;;;;;10.90;100.00;96271.03;7428730;19;20420;-95
2023/10/08 01:10:10;;;;;;;9.10;5.10;;;;;;;11.61;100.00;96375.72;7428268;19;20380;-96
2023/10/08 01:13:05;;;;;;;6.60;3.80;;;;;;;11.72;100.00;96366.25;7431108;19;20385;-96
2023/10/08 01:15:35;;;;;;;6.70;4.27;;;;;;;11.41;100.00;96321.03;7427135;19;20407;-96
2023/10/08 01:18:14;;;;;;;11.47;4.10;;;;;;;11.80;100.00;96386.59;7424912;19;20417;-96
2023/10/08 01:23:22;;;;;;;7.37;4.87;;;;;;;11.10;100.00;96272.06;7436310;19;20393;-96
2023/10/08 01:26:14;;;;;;;4.13;3.70;;;;;;;11.99;100.00;96391.31;7435996;19;20388;-96
2023/10/08 01:28:43;;;;;;;6.50;4.10;;;;;;;12.01;100.00;96383.03;7434252;19;20380;-96
2023/10/08 01:31:13;;;;;;;8.30;4.57;;;;;;;11.39;100.00;96283.53;7433876;19;20415;-96
2023/10/08 01:33:49;;;;;;;5.70;4.03;;;;;;;12.07;100.00;96381.69;7436887;19;20782;-95
2023/10/08 01:36:17;;;;;;;7.47;3.93;;;;;;;11.87;100.00;96337.56;7435425;19;20388;-94
2023/10/08 01:38:49;;;;;;;6.20;3.90;;;;;;;12.18;100.00;96388.09;7437432;19;20389;-96
2023/10/08 01:41:30;;;;;;;3.93;3.23;;;;;;;12.12;100.00;96394.72;7436217;19;20396;-96
2023/10/08 01:44:11;;;;;;;7.13;3.87;;;;;;;11.36;100.00;96279.66;7433648;19;20389;-96
2023/10/08 01:46:40;;;;;;;11.30;4.43;;;;;;;12.76;100.00;96489.38;7436337;19;21579;-96
2023/10/08 01:49:16;;;;;;;8.50;3.87;;;;;;;12.31;100.00;96416.13;7433136;19;20385;-96
2023/10/08 01:52:31;;;;;;;4.00;3.53;;;;;;;12.81;100.00;96477.75;7434184;19;20396;-96
2023/10/08 01:55:17;;;;;;;4.87;3.70;;;;;;;12.15;100.00;96375.47;7437419;19;20424;-96
2023/10/08 01:57:52;;;;;;;5.90;3.87;;;;;;;11.32;100.00;96244.34;7434724;19;20424;-96
2023/10/08 02:09:39;;;;;;;6.47;3.80;;;;;;;11.93;100.00;96397.94;7437192;19;20464;-95
2023/10/08 02:13:03;;;;;;;5.90;3.80;;;;;;;11.28;100.00;96295.66;7435695;19;20393;-96
2023/10/08 02:58:02;;;;;;;6.30;4.37;;;;;;;10.38;100.00;96320.25;7428510;19;20452;-96
2023/10/08 03:00:34;;;;;;;5.87;3.93;;;;;;;10.31;100.00;96316.28;7430042;19;20393;-94
2023/10/08 03:03:07;;;;;;;4.97;3.43;;;;;;;10.72;100.00;96362.25;7431504;19;20419;-96
2023/10/08 03:05:35;;;;;;;4.80;3.73;;;;;;;11.05;100.00;96412.50;7433730;19;20436;-95
2023/10/08 03:08:22;;;;;;;5.77;3.50;;;;;;;10.95;100.00;96373.22;7429692;19;20472;-95
2023/10/08 03:11:02;;;;;;;5.80;4.47;;;;;;;10.22;100.00;96294.44;7431019;19;20380;-95
2023/10/08 03:13:30;;;;;;;4.90;3.50;;;;;;;11.06;100.00;96418.56;7430775;19;20424;-96
2023/10/08 03:19:27;;;;;;;5.73;4.00;;;;;;;10.02;100.00;96297.84;7425985;19;20384;-96
2023/10/08 03:51:38;;;;;;;5.10;3.93;;;;;;;11.16;100.00;96439.31;7432790;19;20401;-96
2023/10/08 03:54:18;;;;;;;6.07;4.80;;;;;;;10.66;100.00;96353.72;7431332;19;20405;-96
2023/10/08 03:57:13;;;;;;;9.77;5.50;;;;;;;11.74;100.00;96516.88;7430674;19;20420;-95
2023/10/08 03:59:40;;;;;;;5.53;3.80;;;;;;;11.38;100.00;96443.47;7433319;19;20432;-96
2023/10/08 04:02:14;;;;;;;5.50;4.90;;;;;;;11.20;100.00;96440.97;7429213;19;20389;-95
2023/10/08 04:04:51;;;;;;;6.63;4.30;;;;;;;10.44;100.00;96335.59;7433463;19;20435;-95
2023/10/08 04:12:45;;;;;;;5.67;3.93;;;;;;;10.91;100.00;96464.91;7429086;19;20413;-96
2023/10/08 04:15:16;;;;;;;6.90;4.30;;;;;;;10.44;100.00;96385.81;7429446;19;20380;-96
2023/10/08 04:17:57;;;;;;;8.20;4.20;;;;;;;11.22;100.00;96465.25;7429223;19;20432;-96
2023/10/08 04:23:44;;;;;;;7.53;4.37;;;;;;;10.70;100.00;96364.44;7431189;19;20411;-96
2023/10/08 04:26:43;;;;;;;4.90;4.07;;;;;;;11.25;100.00;96429.44;7426289;19;20454;-95
2023/10/08 07:23:29;;;;;;;6.17;4.57;;;;;;;11.11;100.00;96346.91;7414224;19;20353;-91
2023/10/08 07:26:14;;;;;;;7.10;4.80;;;;;;;10.62;100.00;96310.53;7394468;19;20441;-92
2023/10/08 07:28:41;;;;;;;5.33;4.60;;;;;;;11.36;100.00;96421.84;7396094;19;21076;-92
2023/10/08 07:31:23;;;;;;;8.40;4.50;;;;;;;11.00;100.00;96378.31;7394848;19;20736;-92
2023/10/08 07:34:17;;;;;;;10.07;5.40;;;;;;;10.36;100.00;96284.34;7398721;19;20387;-92
2023/10/08 07:36:53;;;;;;;10.10;6.87;;;;;;;10.30;100.00;96282.25;7394989;19;20372;-92
2023/10/08 07:39:26;;;;;;;4.97;4.47;;;;;;;10.31;100.00;96299.66;7393662;19;20385;-92
2023/10/08 07:42:08;;;;;;;7.30;4.60;;;;;;;10.80;100.00;96389.69;7395955;19;20380;-92
2023/10/08 07:44:35;;;;;;;7.37;4.60;;;;;;;10.43;100.00;96328.00;7393692;19;20447;-91
2023/10/08 07:47:13;;;;;;;11.13;5.60;;;;;;;11.43;100.00;96475.78;7397598;19;20464;-92
2023/10/08 07:49:43;;;;;;;5.60;4.23;;;;;;;11.40;100.00;96468.50;7393196;19;20455;-93
2023/10/08 07:56:00;;;;;;;7.90;4.43;;;;;;;10.70;100.00;96358.41;7395661;19;20727;-92
2023/10/08 07:58:40;;;;;;;7.80;4.57;;;;;;;11.95;100.00;96536.16;7392561;19;20414;-91
2023/10/08 08:01:14;;;;;;;14.23;4.80;;;;;;;11.37;100.00;96487.69;7394077;19;20460;-92
2023/10/08 08:03:48;;;;;;;8.20;4.40;;;;;;;10.51;100.00;96356.97;7395652;19;20713;-92
2023/10/08 08:06:49;;;;;;;10.77;7.27;;;;;;;11.16;100.00;96440.09;7397250;19;20743;-92
2023/10/08 08:10:24;;;;;;;;;;;;;;;;;;;;;
2023/10/08 08:14:07;;;;;;;9.10;7.47;;;;;;;12.69;100.00;96688.19;7393614;19;20952;-91
2023/10/08 08:24:04;;;;;;;6.67;4.43;;;;;;;12.02;100.00;96531.13;7391273;19;20401;-92
2023/10/08 08:27:00;;;;;;;8.60;5.40;;;;;;;11.54;100.00;96407.28;7391840;19;20405;-90
2023/10/08 08:29:53;;;;;;;6.93;3.80;;;;;;;11.63;100.00;96394.72;7391283;19;20385;-91
2023/10/08 08:32:24;;;;;;;5.57;4.60;;;;;;;13.06;100.00;96597.91;7391356;19;20401;-91
2023/10/08 08:34:58;;;;;;;11.57;4.93;;;;;;;12.12;100.00;96442.41;7395276;19;20452;-89
2023/10/08 08:37:29;;;;;;;8.03;4.50;;;;;;;12.23;100.00;96424.19;7390556;19;20942;-92
2023/10/08 08:39:57;;;;;;;9.73;4.87;;;;;;;11.49;100.00;96304.25;7391697;19;20372;-91
2023/10/08 08:42:31;;;;;;;6.23;4.27;;;;;;;12.13;100.00;96404.97;7397340;19;20377;-91
2023/10/08 08:45:08;;;;;;;8.63;4.80;;;;;;;12.40;100.00;96453.09;7394447;19;20384;-90
2023/10/08 08:47:45;;;;;;;6.90;4.60;;;;;;;11.51;100.00;96317.94;7393918;19;20396;-91
2023/10/08 08:50:29;;;;;;;8.97;4.40;;;;;;;11.72;100.00;96346.94;7394292;19;20829;-91
2023/10/08 08:53:05;;;;;;;6.10;4.47;;;;;;;12.60;100.00;96478.72;7394347;19;20908;-92
2023/10/08 08:55:35;;;;;;;13.23;5.37;;;;;;;12.48;100.00;96452.22;7394731;19;20375;-92
2023/10/08 08:59:25;;;;;;;8.23;4.67;;;;;;;13.77;100.00;96648.53;7393243;19;20401;-91
2023/10/08 09:02:14;;;;;;;9.00;5.30;;;;;;;13.37;100.00;96579.50;7393161;19;20404;-93
2023/10/08 09:05:13;;;;;;;12.23;4.40;;;;;;;12.59;100.00;96477.16;7409692;19;20406;-92
2023/10/08 09:12:59;;;;;;;6.23;4.87;;;;;;;11.89;100.00;96380.41;7391873;19;20456;-92
2023/10/08 09:15:57;;;;;;;7.77;5.60;;;;;;;11.71;100.00;96370.00;7393239;19;20415;-92
2023/10/08 09:19:15;;;;;;;9.57;5.00;;;;;;;11.84;100.00;96374.22;7390245;19;20392;-92
2023/10/08 09:22:05;;;;;;;7.60;5.27;;;;;;;11.69;100.00;96377.50;7389561;19;20369;-92
2023/10/08 09:24:36;;;;;;;7.13;4.97;;;;;;;12.78;100.00;96516.34;7393314;19;20401;-92
2023/10/08 09:27:09;;;;;;;5.50;4.53;;;;;;;12.09;100.00;96421.88;7391709;19;20369;-93
2023/10/08 09:29:39;;;;;;;6.70;4.83;;;;;;;12.78;100.00;96523.53;7393414;19;20377;-93
2023/10/08 09:32:23;;;;;;;9.30;6.13;;;;;;;13.35;100.00;96600.28;7394792;19;20405;-93
2023/10/08 09:34:55;;;;;;;10.73;7.40;;;;;;;13.18;100.00;96576.66;7393816;19;20803;-93
2023/10/08 09:37:22;;;;;;;9.77;5.77;;;;;;;13.13;100.00;96571.59;7395726;19;20414;-92
2023/10/08 09:39:52;;;;;;;7.97;4.87;;;;;;;12.83;100.00;96545.34;7391622;19;20475;-93
2023/10/08 09:42:22;;;;;;;10.37;5.97;;;;;;;12.05;100.00;96450.16;7398141;19;20400;-92
2023/10/08 09:44:49;;;;;;;9.83;5.53;;;;;;;12.47;100.00;96532.09;7403293;19;20442;-93
2023/10/08 09:47:22;;;;;;;8.87;5.90;;;;;;;12.88;100.00;96594.75;7400969;19;20981;-92
2023/10/08 09:50:12;;;;;;;7.03;4.67;;;;;;;12.94;100.00;96625.25;7400923;19;20478;-92
2023/10/08 09:52:49;;;;;;;8.77;6.47;;;;;;;12.03;100.00;96476.25;7400792;19;20399;-93
2023/10/08 09:55:20;;;;;;;10.73;5.27;;;;;;;11.50;100.00;96422.31;7398745;19;20458;-92
2023/10/08 09:58:22;;;;;;;11.90;5.00;;;;;;;11.57;100.00;96437.63;7403445;19;20413;-93
2023/10/08 10:01:10;;;;;;;6.67;5.07;;;;;;;12.47;100.00;96569.25;7403054;19;20397;-92
2023/10/08 10:03:37;;;;;;;7.57;5.10;;;;;;;12.78;100.00;96611.88;7400208;19;20801;-92
2023/10/08 10:06:12;;;;;;;11.90;5.50;;;;;;;13.19;100.00;96700.34;7401667;19;20388;-92
2023/10/08 10:08:42;;;;;;;7.67;5.33;;;;;;;11.72;100.00;96456.28;7399429;19;20433;-92
2023/10/08 10:11:12;;;;;;;8.97;5.30;;;;;;;12.94;100.00;96651.78;7402145;19;20388;-92
2023/10/08 10:14:25;;;;;;;7.37;4.87;;;;;;;11.99;100.00;96552.94;7401353;19;20381;-93
2023/10/08 10:17:33;;;;;;;7.30;4.30;;;;;;;12.09;100.00;96610.06;7408464;19;20491;-92
2023/10/08 10:20:16;;;;;;;8.73;5.10;;;;;;;11.80;100.00;96605.69;7404346;19;20419;-93
2023/10/08 10:22:45;;;;;;;7.67;4.90;;;;;;;12.22;100.00;96801.75;7409626;19;20381;-91
2023/10/08 10:25:32;;;;;;;9.27;3.60;;;;;;;11.18;100.00;96668.13;7405904;19;20406;-91
2023/10/08 10:28:04;;;;;;;4.53;3.60;;;;;;;11.58;100.00;96778.16;7399487;19;20922;-92
2023/10/08 10:30:32;;;;;;;4.00;3.00;;;;;;;9.27;100.00;96482.34;7426455;19;20383;-92
2023/10/08 10:33:05;;;;;;;2.97;2.50;;;;;;;9.42;100.00;96536.50;7425438;19;20385;-93
2023/10/08 10:35:37;;;;;;;3.23;2.57;;;;;;;9.58;100.00;96584.28;7432586;19;20392;-93
2023/10/08 10:38:06;;;;;;;3.40;2.20;;;;;;;8.76;100.00;96475.25;7430270;19;20421;-92
2023/10/08 10:40:39;;;;;;;3.40;3.10;;;;;;;9.34;100.00;96579.50;7432531;19;20401;-91
2023/10/08 10:43:09;;;;;;;3.00;2.70;;;;;;;10.16;100.00;96702.59;7436522;19;20440;-91
2023/10/08 10:45:36;;;;;;;4.70;3.23;;;;;;;10.43;100.00;96751.69;7406072;19;20384;-91
2023/10/08 10:56:29;;;;;;;6.10;2.73;;;;;;;9.45;100.00;96613.19;7400410;19;20380;-92
2023/10/08 10:59:05;;;;;;;4.70;2.70;;;;;;;8.72;100.00;96527.06;7397357;19;20437;-92
2023/10/08 11:01:44;;;;;;;3.47;3.17;;;;;;;9.42;100.00;96608.53;7398019;19;20384;-92
2023/10/08 11:04:15;;;;;;;2.43;2.23;;;;;;;9.86;100.00;96648.06;7400566;19;20456;-92
2023/10/08 11:06:45;;;;;;;6.57;2.70;;;;;;;9.51;100.00;96592.69;7398113;19;20929;-91
2023/10/08 11:09:31;;;;;;;8.00;3.80;;;;;;;9.42;100.00;96605.88;7398833;19;20417;-91
2023/10/08 11:12:13;;;;;;;3.13;2.67;;;;;;;10.25;100.00;96735.06;7398552;19;20381;-91
2023/10/08 11:14:41;;;;;;;5.20;4.03;;;;;;;9.83;100.00;96635.50;7398516;19;20388;-91
2023/10/08 11:17:36;;;;;;;3.50;2.83;;;;;;;9.96;100.00;96664.38;7398820;19;20384;-92
2023/10/08 11:20:26;;;;;;;5.43;2.77;;;;;;;9.64;100.00;96651.69;7405251;19;20376;-91
2023/10/08 11:23:17;;;;;;;2.97;2.73;;;;;;;8.72;100.00;96508.59;7405177;19;20391;-91
2023/10/08 11:25:54;;;;;;;3.50;2.93;;;;;;;9.62;100.00;96653.88;7406290;19;20373;-91
2023/10/08 11:28:27;;;;;;;4.57;3.30;;;;;;;9.63;100.00;96666.75;7403677;19;20396;-91
2023/10/08 11:31:07;;;;;;;2.37;2.00;;;;;;;9.19;100.00;96636.91;7406750;19;20376;-91
2023/10/08 11:33:55;;;;;;;4.17;2.33;;;;;;;9.33;100.00;96631.50;7410133;19;20368;-92
2023/10/08 11:36:33;;;;;;;4.90;1.80;;;;;;;8.52;100.00;96523.13;7402580;19;20365;-91
2023/10/08 11:39:21;;;;;;;3.37;3.07;;;;;;;8.70;100.00;96523.97;7397040;19;20452;-91
2023/10/08 11:48:46;;;;;;;1.60;1.50;;;;;;;8.50;100.00;96547.16;7397802;19;20532;-92
2023/10/08 11:51:17;;;;;;;1.57;1.43;;;;;;;9.29;100.00;96679.91;7397686;19;20380;-92
2023/10/08 11:53:44;;;;;;;1.80;1.63;;;;;;;9.46;100.00;96701.81;7397261;19;20415;-92
2023/10/08 11:56:15;;;;;;;1.40;1.30;;;;;;;10.56;100.00;96855.72;7398738;19;20456;-91
2023/10/08 11:58:45;;;;;;;3.13;1.40;;;;;;;10.49;100.00;96866.75;7398143;19;20412;-91
2023/10/08 12:01:18;;;;;;;1.30;1.20;;;;;;;8.49;100.00;96581.72;7400246;19;20800;-91
2023/10/08 12:03:50;;;;;;;1.43;1.17;;;;;;;8.61;100.00;96595.09;7395897;19;20396;-91
2023/10/08 12:06:24;;;;;;;1.40;1.30;;;;;;;9.12;100.00;96704.41;7398938;19;20411;-90
2023/10/08 12:08:53;;;;;;;1.00;0.87;;;;;;;9.08;100.00;96692.91;7397242;19;20431;-90
2023/10/08 12:11:23;;;;;;;1.10;1.00;;;;;;;8.17;100.00;96573.06;7400166;19;20384;-90
2023/10/08 12:13:52;;;;;;;1.43;1.17;;;;;;;7.94;100.00;96572.34;7399449;19;20377;-91
2023/10/08 12:16:29;;;;;;;1.50;1.40;;;;;;;8.84;100.00;96674.88;7400680;19;20716;-91
2023/10/08 12:19:01;;;;;;;1.53;1.30;;;;;;;8.69;100.00;96623.34;7398895;19;20765;-91
2023/10/08 12:21:31;;;;;;;1.27;1.17;;;;;;;9.07;100.00;96649.94;7397516;19;20385;-91
2023/10/08 12:24:05;;;;;;;1.20;1.10;;;;;;;8.68;100.00;96590.16;7400577;19;20391;-91
2023/10/08 12:27:06;;;;;;;10.27;7.80;;;;;;;9.61;100.00;96708.50;7398789;19;20397;-90
2023/10/08 12:29:50;;;;;;;2.53;1.43;;;;;;;9.41;100.00;96685.38;7412848;19;20364;-92
2023/10/08 12:32:30;;;;;;;0.90;0.77;;;;;;;9.19;100.00;96694.19;7403506;19;20387;-91
2023/10/08 12:34:58;;;;;;;1.67;0.97;;;;;;;9.46;100.00;96778.34;7418012;19;20392;-91
2023/10/08 12:37:26;;;;;;;0.87;0.80;;;;;;;9.31;100.00;96733.16;7408341;19;20411;-91
2023/10/08 12:40:11;;;;;;;1.00;0.70;;;;;;;10.05;100.00;96839.50;7399263;19;20393;-91
2023/10/08 12:42:44;;;;;;;1.20;1.10;;;;;;;9.52;100.00;96757.13;7401162;19;20389;-91
2023/10/08 12:45:12;;;;;;;1.03;0.90;;;;;;;9.02;100.00;96673.03;7401283;19;20395;-91
2023/10/08 12:47:39;;;;;;;1.30;0.80;;;;;;;9.08;100.00;96711.38;7396594;19;20415;-90
2023/10/08 12:50:07;;;;;;;1.53;1.37;;;;;;;8.65;100.00;96653.22;7397458;19;20432;-91
2023/10/08 12:52:45;;;;;;;1.27;1.17;;;;;;;9.14;100.00;96716.22;7402487;19;20512;-89
2023/10/08 12:55:12;;;;;;;1.33;1.23;;;;;;;8.59;100.00;96618.34;7404037;19;20411;-89
2023/10/08 12:57:41;;;;;;;1.53;1.43;;;;;;;8.50;100.00;96620.16;7402846;19;20417;-91
2023/10/08 13:00:11;;;;;;;1.77;1.67;;;;;;;8.83;100.00;96666.19;7404635;19;20481;-90
2023/10/08 13:02:42;;;;;;;1.83;1.50;;;;;;;9.33;100.00;96734.41;7404968;19;20407;-90
2023/10/08 13:05:15;;;;;;;1.80;1.57;;;;;;;9.62;100.00;96772.66;7404201;19;20380;-90
2023/10/08 13:07:44;;;;;;;1.40;1.30;;;;;;;10.24;100.00;96865.66;7403181;19;20413;-88
2023/10/08 13:10:14;;;;;;;1.87;1.73;;;;;;;9.95;100.00;96804.69;7403600;19;20785;-87
2023/10/08 13:12:41;;;;;;;1.73;1.50;;;;;;;9.44;100.00;96743.59;7404383;19;20400;-87
2023/10/08 13:15:09;;;;;;;2.60;2.40;;;;;;;8.68;100.00;96613.09;7398551;19;20928;-88
2023/10/08 13:17:36;;;;;;;3.33;2.60;;;;;;;9.99;100.00;96787.91;7405596;19;20416;-87
2023/10/08 13:20:04;;;;;;;12.50;7.50;;;;;;;10.10;100.00;96835.16;7402661;19;20881;-88
2023/10/08 13:22:33;;;;;;;6.67;5.93;;;;;;;10.01;100.00;96812.13;7402830;19;20381;-89
2023/10/08 13:25:04;;;;;;;3.00;2.40;;;;;;;9.88;100.00;96799.06;7403800;19;20384;-89
2023/10/08 13:27:31;;;;;;;2.00;1.50;;;;;;;9.60;100.00;96775.59;7405550;19;20412;-89
2023/10/08 13:29:58;;;;;;;2.70;1.73;;;;;;;8.56;100.00;96635.56;7405609;19;20397;-90
2023/10/08 13:32:26;;;;;;;1.70;1.60;;;;;;;9.17;100.00;96689.22;7406662;19;20478;-90
2023/10/08 13:34:53;;;;;;;2.30;2.10;;;;;;;9.14;100.00;96697.75;7405746;19;20392;-90
2023/10/08 13:37:20;;;;;;;1.47;1.37;;;;;;;8.67;100.00;96619.44;7406462;19;20424;-90
2023/10/08 13:39:49;;;;;;;2.90;1.80;;;;;;;9.97;100.00;96792.72;7405690;19;20431;-90
2023/10/08 13:42:30;;;;;;;1.80;1.30;;;;;;;9.68;100.00;96747.66;7403885;19;20372;-89
2023/10/08 13:45:26;;;;;;;2.10;1.60;;;;;;;10.14;100.00;96836.09;7406162;19;20989;-90
2023/10/08 13:47:56;;;;;;;1.60;1.47;;;;;;;9.30;100.00;96732.38;7405830;19;20969;-90
2023/10/08 13:50:24;;;;;;;2.07;1.27;;;;;;;10.11;100.00;96826.91;7426174;19;20403;-89
2023/10/08 13:52:52;;;;;;;1.30;1.20;;;;;;;9.58;100.00;96759.28;7427440;19;20385;-90
2023/10/08 13:55:24;;;;;;;1.70;1.60;;;;;;;9.60;100.00;96737.84;7405628;19;20381;-89
2023/10/08 13:57:52;;;;;;;5.67;1.70;;;;;;;9.81;100.00;96788.22;7407576;19;20414;-90
2023/10/08 14:00:25;;;;;;;7.50;2.63;;;;;;;9.35;100.00;96726.19;7402767;19;20376;-88
2023/10/08 14:02:53;;;;;;;4.00;2.80;;;;;;;8.92;100.00;96636.41;7402101;19;20393;-91
2023/10/08 14:05:51;;;;;;;2.20;2.00;;;;;;;9.99;100.00;96790.53;7399399;19;20396;-91
2023/10/08 14:12:13;;;;;;;1.17;1.00;;;;;;;9.22;100.00;96667.19;7404936;19;20925;-91
2023/10/08 14:14:56;;;;;;;1.40;1.03;;;;;;;9.42;100.00;96703.53;7424955;19;20395;-90
2023/10/08 14:18:04;;;;;;;1.20;0.93;;;;;;;9.77;100.00;96802.03;7426587;19;20423;-91
2023/10/08 14:20:22;;;;;;;1.40;1.30;;;;;;;9.40;100.00;96747.94;7435802;19;20403;-91
2023/10/08 14:22:57;;;;;;;1.33;1.23;;;;;;;9.01;100.00;96693.38;7405379;19;20377;-91
2023/10/08 14:25:33;;;;;;;1.17;1.07;;;;;;;9.16;100.00;96726.44;7399098;19;20380;-91
2023/10/08 14:28:04;;;;;;;1.30;1.20;;;;;;;9.15;100.00;96712.47;7398980;19;20420;-89
2023/10/08 14:30:35;;;;;;;1.10;1.00;;;;;;;9.90;100.00;96821.47;7401094;19;20764;-91
2023/10/08 14:33:03;;;;;;;1.10;1.00;;;;;;;9.52;100.00;96744.69;7402102;19;20381;-92
2023/10/08 14:45:37;;;;;;;1.20;1.10;;;;;;;9.08;100.00;96614.59;7430066;19;20441;-94
2023/10/08 14:48:13;;;;;;;3.00;1.07;;;;;;;9.00;100.00;96609.28;7427104;19;20401;-94
2023/10/08 14:50:42;;;;;;;1.10;0.90;;;;;;;9.01;100.00;96621.38;7429435;19;20409;-94
2023/10/08 14:53:28;;;;;;;1.37;1.00;;;;;;;8.80;100.00;96616.69;7431004;19;20409;-93
2023/10/08 14:56:05;;;;;;;1.20;1.10;;;;;;;10.02;100.00;96832.22;7429010;19;20436;-95
2023/10/08 14:58:49;;;;;;;1.40;1.30;;;;;;;8.64;100.00;96617.41;7428980;19;20935;-95
2023/10/08 15:01:32;;;;;;;3.07;0.90;;;;;;;10.00;100.00;96828.31;7429572;19;20377;-94
2023/10/08 15:04:04;;;;;;;1.23;1.07;;;;;;;9.11;100.00;96731.88;7426874;19;20376;-94
2023/10/08 15:06:56;;;;;;;1.97;1.87;;;;;;;9.73;100.00;96803.72;7429564;19;20377;-95
2023/10/08 15:09:57;;;;;;;3.57;3.27;;;;;;;9.00;100.00;96675.22;7425891;19;20460;-94
2023/10/08 15:13:19;;;;;;;1.60;1.50;;;;;;;8.89;100.00;96654.41;7423294;19;20389;-93
2023/10/08 15:22:36;;;;;;;2.90;1.17;;;;;;;8.86;100.00;96604.91;7402963;19;20395;-90
2023/10/08 15:25:23;;;;;;;2.60;2.40;;;;;;;9.64;100.00;96712.41;7402870;19;20388;-90
2023/10/08 15:27:50;;;;;;;1.87;1.40;;;;;;;8.21;100.00;96510.81;7399515;19;20408;-90
2023/10/08 15:30:20;;;;;;;1.27;1.17;;;;;;;9.38;100.00;96705.25;7402500;19;20383;-90
2023/10/08 15:32:55;;;;;;;2.87;1.70;;;;;;;8.52;100.00;96578.47;7402341;19;20369;-90
2023/10/08 15:35:33;;;;;;;1.80;1.70;;;;;;;8.42;100.00;96555.84;7403686;19;20388;-90
2023/10/08 15:38:03;;;;;;;6.73;4.83;;;;;;;9.38;100.00;96697.31;7401397;19;20408;-91
2023/10/08 15:40:33;;;;;;;3.23;3.03;;;;;;;9.08;100.00;96658.63;7401505;19;20393;-90
2023/10/08 15:43:00;;;;;;;2.70;2.50;;;;;;;8.48;100.00;96559.09;7403917;19;20448;-91
2023/10/08 15:45:29;;;;;;;2.00;1.90;;;;;;;10.11;100.00;96810.28;7404195;19;20464;-90
2023/10/08 15:47:58;;;;;;;2.90;2.70;;;;;;;9.40;100.00;96694.38;7401419;19;20427;-90
2023/10/08 15:50:27;;;;;;;5.77;5.20;;;;;;;8.87;100.00;96630.19;7403756;19;20389;-90
2023/10/08 15:53:00;;;;;;;4.40;1.80;;;;;;;9.25;100.00;96673.72;7402249;19;20369;-91
2023/10/08 15:55:31;;;;;;;1.50;1.40;;;;;;;9.53;100.00;96722.50;7402351;19;20399;-89
2023/10/08 15:57:59;;;;;;;1.67;1.13;;;;;;;8.33;100.00;96541.81;7398319;19;20428;-89
2023/10/08 16:00:29;;;;;;;1.37;1.00;;;;;;;8.62;100.00;96601.13;7399119;19;20377;-89
2023/10/08 16:02:56;;;;;;;1.50;1.40;;;;;;;8.83;100.00;96639.03;7402446;19;20383;-89
2023/10/08 16:05:31;;;;;;;1.40;1.30;;;;;;;8.23;100.00;96545.50;7420893;19;20408;-89
2023/10/08 16:07:58;;;;;;;2.80;2.57;;;;;;;9.12;100.00;96660.34;7400259;19;20412;-90
2023/10/08 16:10:29;;;;;;;4.93;4.43;;;;;;;8.29;100.00;96560.09;7402000;19;20411;-90
2023/10/08 16:13:04;;;;;;;2.50;2.17;;;;;;;8.11;100.00;96518.97;7427372;19;20397;-90
2023/10/08 16:15:32;;;;;;;1.50;1.20;;;;;;;9.77;100.00;96795.97;7424509;19;20909;-90
2023/10/08 16:17:59;;;;;;;1.50;1.40;;;;;;;8.43;100.00;96614.59;7403669;19;20428;-90
2023/10/08 16:20:31;;;;;;;2.43;2.23;;;;;;;9.57;100.00;96783.34;7402487;19;20710;-89
2023/10/08 16:22:58;;;;;;;2.47;1.80;;;;;;;8.70;100.00;96651.25;7404021;19;20380;-90
2023/10/08 16:25:26;;;;;;;3.50;1.50;;;;;;;7.98;100.00;96543.56;7402714;19;20441;-90
2023/10/08 16:28:00;;;;;;;1.33;1.23;;;;;;;8.24;100.00;96583.94;7410657;19;20453;-89
2023/10/08 16:30:33;;;;;;;4.70;1.53;;;;;;;8.87;100.00;96704.03;7404630;19;20905;-90
2023/10/08 16:33:09;;;;;;;1.20;1.10;;;;;;;8.07;100.00;96583.88;7406774;19;20389;-90
2023/10/08 16:35:50;;;;;;;3.83;1.40;;;;;;;7.88;100.00;96560.41;7405013;19;20397;-89
2023/10/08 16:38:21;;;;;;;5.60;2.67;;;;;;;7.91;100.00;96553.75;7402527;19;20411;-90
2023/10/08 16:40:57;;;;;;;2.40;1.97;;;;;;;9.20;100.00;96732.66;7409002;19;20387;-90
2023/10/08 16:43:24;;;;;;;1.87;1.50;;;;;;;8.00;100.00;96534.25;7401399;19;20392;-89
2023/10/08 16:45:52;;;;;;;1.40;1.30;;;;;;;9.24;100.00;96722.28;7399676;19;20384;-89
2023/10/08 16:48:20;;;;;;;1.37;1.27;;;;;;;8.11;100.00;96557.69;7400783;19;20744;-89
2023/10/08 16:50:50;;;;;;;2.73;1.30;;;;;;;8.67;100.00;96659.75;7396526;19;20392;-90
2023/10/08 16:53:21;;;;;;;1.20;1.10;;;;;;;9.65;100.00;96795.81;7413121;19;20373;-91
2023/10/08 16:55:51;;;;;;;1.50;1.40;;;;;;;8.30;100.00;96606.44;7396565;19;20396;-90
2023/10/08 16:58:18;;;;;;;2.00;1.60;;;;;;;9.25;100.00;96756.28;7401147;19;20431;-91
2023/10/08 17:00:50;;;;;;;9.10;2.60;;;;;;;9.06;100.00;96710.91;7400216;19;20379;-90
2023/10/08 17:03:21;;;;;;;5.03;1.70;;;;;;;9.66;100.00;96803.41;7400984;19;20401;-90
2023/10/08 17:05:53;;;;;;;3.77;2.93;;;;;;;9.21;100.00;96714.97;7397941;19;20693;-90
2023/10/08 17:08:27;;;;;;;2.97;2.60;;;;;;;9.17;100.00;96733.28;7398549;19;20442;-90
2023/10/08 17:10:54;;;;;;;3.80;3.40;;;;;;;9.48;100.00;96818.44;7403794;19;20430;-89
2023/10/08 17:13:22;;;;;;;2.80;2.20;;;;;;;8.72;100.00;96707.09;7398683;19;20941;-90
2023/10/08 17:15:49;;;;;;;3.70;2.07;;;;;;;8.36;100.00;96653.75;7401034;19;20389;-90
2023/10/08 17:18:20;;;;;;;4.60;4.20;;;;;;;7.52;100.00;96539.47;7397970;19;20528;-90
2023/10/08 17:21:15;;;;;;;4.93;3.43;;;;;;;8.53;100.00;96688.84;7400750;19;20817;-90
2023/10/08 17:23:42;;;;;;;5.73;3.97;;;;;;;8.70;100.00;96725.06;7399319;19;20407;-91
2023/10/08 17:26:11;;;;;;;3.83;3.53;;;;;;;8.88;100.00;96731.94;7401874;19;20815;-91
2023/10/08 17:28:41;;;;;;;4.33;4.03;;;;;;;8.44;100.00;96664.34;7396448;19;20411;-91
2023/10/08 17:31:11;;;;;;;3.73;2.73;;;;;;;9.33;100.00;96784.53;7398027;19;20396;-90
2023/10/08 17:33:44;;;;;;;2.90;2.70;;;;;;;8.84;100.00;96735.50;7400424;19;20385;-90
2023/10/08 17:36:16;;;;;;;4.10;3.80;;;;;;;7.99;100.00;96608.28;7398924;19;20755;-90
2023/10/08 17:38:58;;;;;;;6.20;3.20;;;;;;;8.49;100.00;96708.97;7398972;19;20480;-90
2023/10/08 17:41:38;;;;;;;3.63;3.03;;;;;;;7.76;100.00;96602.31;7400720;19;20380;-90
2023/10/08 17:44:24;;;;;;;4.20;3.80;;;;;;;7.73;100.00;96594.97;7401406;19;20390;-90
2023/10/08 17:46:52;;;;;;;6.30;4.63;;;;;;;9.00;100.00;96775.44;7426903;19;20406;-90
2023/10/08 17:49:20;;;;;;;3.73;3.43;;;;;;;8.68;100.00;96707.97;7425819;19;20369;-91
2023/10/08 17:51:47;;;;;;;4.43;4.13;;;;;;;7.72;100.00;96575.78;7423883;19;20384;-90
2023/10/08 17:54:19;;;;;;;4.00;3.70;;;;;;;9.33;100.00;96825.97;7421263;19;20384;-90